Time;durP1;ratioP1;P1;durP2;ratioP2;P2;SDS_P1;SDS_P2;PMS_P1;PMS_P2;Temp;Humidity;BMP_temperature;BMP_pressure;BME280_temperature;BME280_humidity;BME280_pressure;Samples;Min_cycle;Max_cycle;Signal;HPM_P1;HPM_P2
2021/07/01 00:02:00;;;;;;;12.48;4.80;;;14.90;99.90;;;;;;5049057;28;20577;-84
2021/07/01 00:04:28;;;;;;;9.98;5.88;;;14.90;99.90;;;;;;5027258;28;20041;-84
2021/07/01 00:06:55;;;;;;;8.85;5.32;;;14.90;99.90;;;;;;5032521;28;20492;-85
2021/07/01 00:09:24;;;;;;;9.00;5.30;;;14.80;99.90;;;;;;5038374;28;20045;-85
2021/07/01 00:11:53;;;;;;;8.27;5.00;;;14.80;99.90;;;;;;5046060;28;20345;-85
2021/07/01 00:14:20;;;;;;;9.85;5.20;;;14.80;99.90;;;;;;5045114;28;20060;-84
2021/07/01 00:16:49;;;;;;;11.57;5.68;;;14.80;99.90;;;;;;5029417;28;20044;-84
2021/07/01 00:19:16;;;;;;;10.05;5.30;;;15.00;99.90;;;;;;5031376;28;20037;-84
2021/07/01 00:21:44;;;;;;;7.93;5.43;;;15.00;99.90;;;;;;5025786;28;20083;-83
2021/07/01 00:24:11;;;;;;;10.20;5.90;;;15.00;99.90;;;;;;5046802;28;20106;-85
2021/07/01 00:26:38;;;;;;;12.68;5.68;;;15.00;99.90;;;;;;5026804;28;20451;-86
2021/07/01 00:29:05;;;;;;;11.68;6.22;;;15.10;99.90;;;;;;5030596;28;20049;-85
2021/07/01 00:31:32;;;;;;;12.65;6.22;;;15.10;99.90;;;;;;5050329;28;20041;-85
2021/07/01 00:34:01;;;;;;;11.23;7.28;;;15.00;99.90;;;;;;5048979;28;20045;-85
2021/07/01 00:36:28;;;;;;;14.73;7.72;;;15.00;99.90;;;;;;5033664;28;20037;-85
2021/07/01 00:38:54;;;;;;;14.10;6.78;;;14.90;99.90;;;;;;5023902;28;20405;-85
2021/07/01 00:41:21;;;;;;;13.65;7.22;;;15.00;99.90;;;;;;5048913;28;20053;-85
2021/07/01 00:43:48;;;;;;;14.40;8.57;;;15.00;99.90;;;;;;5033254;28;20114;-83
2021/07/01 00:46:16;;;;;;;18.17;8.65;;;15.00;99.90;;;;;;5021435;28;20494;-85
2021/07/01 00:48:43;;;;;;;15.80;9.40;;;14.90;99.90;;;;;;5031591;28;20049;-84
2021/07/01 00:51:11;;;;;;;14.85;9.38;;;14.80;99.90;;;;;;5047938;28;20057;-84
2021/07/01 00:53:38;;;;;;;17.02;10.20;;;14.90;99.90;;;;;;5040402;28;20053;-85
2021/07/01 00:56:07;;;;;;;21.17;10.75;;;14.90;99.90;;;;;;5031861;28;20045;-85
2021/07/01 00:58:36;;;;;;;17.20;10.38;;;14.90;99.90;;;;;;5041829;28;20053;-85
2021/07/01 01:01:04;;;;;;;16.08;9.30;;;14.80;99.90;;;;;;5044673;28;20057;-84
2021/07/01 01:03:32;;;;;;;19.90;10.43;;;14.90;99.90;;;;;;5046459;28;20057;-85
2021/07/01 01:05:59;;;;;;;22.75;10.48;;;14.90;99.90;;;;;;5049309;28;20041;-85
2021/07/01 01:08:28;;;;;;;15.20;9.73;;;15.70;99.90;;;;;;5029494;28;20056;-85
2021/07/01 01:10:55;;;;;;;18.73;10.30;;;14.90;99.90;;;;;;5045375;28;20045;-85
2021/07/01 01:13:25;;;;;;;15.98;9.43;;;15.00;99.90;;;;;;5029085;28;20060;-82
2021/07/01 01:15:54;;;;;;;17.05;9.48;;;15.00;99.90;;;;;;5031032;28;20645;-85
2021/07/01 01:18:21;;;;;;;13.77;8.60;;;14.90;99.90;;;;;;5038045;28;20048;-85
2021/07/01 01:20:49;;;;;;;13.20;8.10;;;14.80;99.90;;;;;;5029731;28;20049;-85
2021/07/01 01:23:18;;;;;;;15.60;8.43;;;14.80;99.90;;;;;;5031281;28;20041;-85
2021/07/01 01:25:47;;;;;;;15.00;8.27;;;14.70;99.90;;;;;;5026879;28;20041;-85
2021/07/01 01:28:14;;;;;;;15.10;8.10;;;14.70;99.90;;;;;;5034489;28;20041;-85
2021/07/01 01:30:41;;;;;;;14.07;8.00;;;14.50;99.90;;;;;;5048684;28;20041;-85
2021/07/01 01:33:09;;;;;;;16.58;8.82;;;14.60;99.90;;;;;;5048323;28;20422;-85
2021/07/01 01:35:37;;;;;;;18.65;8.80;;;14.60;99.90;;;;;;5048115;28;20086;-85
2021/07/01 01:38:07;;;;;;;17.00;8.43;;;14.60;99.90;;;;;;5034281;28;20142;-85
2021/07/01 01:40:35;;;;;;;17.30;9.00;;;14.60;99.90;;;;;;5035095;28;20079;-85
2021/07/01 01:43:02;;;;;;;20.38;10.07;;;14.60;99.90;;;;;;5028478;28;20049;-85
2021/07/01 01:45:29;;;;;;;16.35;8.98;;;14.70;99.90;;;;;;5038983;28;20041;-85
2021/07/01 01:47:56;;;;;;;20.20;9.50;;;14.60;99.90;;;;;;5032219;28;20049;-85
2021/07/01 01:50:24;;;;;;;17.95;9.75;;;14.60;99.90;;;;;;5034999;28;20040;-84
2021/07/01 01:52:53;;;;;;;17.77;9.93;;;14.70;99.90;;;;;;5027856;28;20410;-84
2021/07/01 01:55:20;;;;;;;18.42;10.52;;;14.70;99.90;;;;;;5031593;28;20067;-85
2021/07/01 01:57:51;;;;;;;20.40;9.57;;;14.70;99.90;;;;;;5035545;28;20119;-85
2021/07/01 02:00:19;;;;;;;20.95;9.32;;;14.70;99.90;;;;;;5035308;28;20046;-85
2021/07/01 02:02:46;;;;;;;20.13;9.45;;;14.70;99.90;;;;;;5053304;28;20041;-84
2021/07/01 02:05:14;;;;;;;16.90;9.02;;;14.70;99.90;;;;;;5032981;28;20037;-86
2021/07/01 02:07:41;;;;;;;17.58;10.25;;;14.60;99.90;;;;;;5030720;28;20115;-85
2021/07/01 02:10:09;;;;;;;20.95;8.68;;;14.70;99.90;;;;;;5039535;28;20041;-85
2021/07/01 02:12:37;;;;;;;22.15;9.68;;;14.70;99.90;;;;;;5037334;28;20053;-84
2021/07/01 02:15:07;;;;;;;20.83;9.48;;;14.60;99.90;;;;;;5029281;28;20039;-82
2021/07/01 02:17:34;;;;;;;;;;;14.60;99.90;;;;;;5034305;28;20099;-85
2021/07/01 02:20:03;;;;;;;18.08;9.13;;;14.50;99.90;;;;;;5032727;28;19956;-85
2021/07/01 02:22:30;;;;;;;18.30;9.05;;;14.40;99.90;;;;;;5036591;28;20041;-85
2021/07/01 02:24:57;;;;;;;18.85;9.52;;;14.50;99.90;;;;;;5047229;28;20029;-84
2021/07/01 02:27:24;;;;;;;19.52;9.63;;;14.40;99.90;;;;;;5032279;28;20048;-85
2021/07/01 02:29:51;;;;;;;15.95;8.90;;;14.40;99.90;;;;;;5033139;28;20091;-85
2021/07/01 02:32:19;;;;;;;20.85;10.20;;;14.40;99.90;;;;;;5029941;28;20094;-85
2021/07/01 02:34:46;;;;;;;19.40;9.13;;;14.40;99.90;;;;;;5034664;28;20045;-84
2021/07/01 02:37:13;;;;;;;22.23;9.52;;;14.40;99.90;;;;;;5033758;28;20041;-83
2021/07/01 02:39:39;;;;;;;18.67;9.15;;;14.40;99.90;;;;;;5024946;28;22728;-85
2021/07/01 02:42:07;;;;;;;20.88;9.75;;;14.30;99.90;;;;;;5050260;28;20083;-84
2021/07/01 02:44:34;;;;;;;21.88;10.57;;;14.30;99.90;;;;;;5052072;28;20052;-85
2021/07/01 02:47:02;;;;;;;23.15;9.90;;;14.30;99.90;;;;;;5030573;28;20398;-83
2021/07/01 02:49:31;;;;;;;17.90;9.70;;;14.20;99.90;;;;;;5039695;28;20080;-83
2021/07/01 02:51:57;;;;;;;19.63;10.07;;;14.50;99.90;;;;;;5027836;28;20115;-85
2021/07/01 02:54:24;;;;;;;22.15;10.57;;;14.30;99.90;;;;;;5048123;28;20103;-85
2021/07/01 02:56:51;;;;;;;21.27;10.55;;;14.40;99.90;;;;;;5052547;28;20325;-85
2021/07/01 02:59:19;;;;;;;18.42;9.73;;;14.30;99.90;;;;;;5047189;28;20053;-86
2021/07/01 03:01:47;;;;;;;21.10;9.15;;;14.30;99.90;;;;;;5023664;28;20099;-86
2021/07/01 03:04:15;;;;;;;18.92;9.68;;;14.30;99.90;;;;;;5031524;28;20444;-86
2021/07/01 03:06:44;;;;;;;20.08;9.48;;;14.20;99.90;;;;;;5031063;28;20044;-85
2021/07/01 03:09:12;;;;;;;20.42;9.73;;;14.30;99.90;;;;;;5044679;28;20071;-85
2021/07/01 03:11:39;;;;;;;19.08;9.38;;;14.30;99.90;;;;;;5030416;28;20045;-83
2021/07/01 03:14:06;;;;;;;28.58;9.57;;;14.30;99.90;;;;;;5051781;28;20083;-86
2021/07/01 03:16:34;;;;;;;20.25;10.30;;;14.30;99.90;;;;;;5023177;28;20383;-86
2021/07/01 03:19:02;;;;;;;16.67;9.38;;;14.30;99.90;;;;;;5046798;28;20049;-85
2021/07/01 03:21:29;;;;;;;19.15;9.73;;;14.20;99.90;;;;;;5035412;28;20048;-85
2021/07/01 03:23:57;;;;;;;19.63;8.95;;;14.20;99.90;;;;;;5029692;28;20053;-83
2021/07/01 03:26:24;;;;;;;19.42;9.45;;;14.20;99.90;;;;;;5033564;28;20045;-85
2021/07/01 03:28:51;;;;;;;21.65;10.35;;;14.20;99.90;;;;;;5042725;28;20453;-82
2021/07/01 03:31:18;;;;;;;17.08;9.85;;;14.20;99.90;;;;;;5027217;28;20037;-83
2021/07/01 03:33:45;;;;;;;22.02;9.77;;;14.20;99.90;;;;;;5046615;28;20494;-85
2021/07/01 03:36:12;;;;;;;20.35;9.75;;;14.20;99.90;;;;;;5031870;28;20045;-85
2021/07/01 03:38:39;;;;;;;21.85;9.73;;;14.30;99.90;;;;;;5029005;28;20053;-83
2021/07/01 03:41:07;;;;;;;18.75;9.85;;;14.30;99.90;;;;;;5031376;28;20041;-85
2021/07/01 03:43:39;;;;;;;16.42;9.88;;;14.20;99.90;;;;;;5039368;28;20107;-84
2021/07/01 03:46:07;;;;;;;20.88;10.27;;;14.30;99.90;;;;;;5041463;28;20090;-85
2021/07/01 03:48:34;;;;;;;19.65;10.50;;;14.30;99.90;;;;;;5040432;28;20113;-85
2021/07/01 03:51:03;;;;;;;23.95;10.85;;;14.40;99.90;;;;;;5048897;28;20037;-85
2021/07/01 03:53:29;;;;;;;19.50;10.20;;;14.40;99.90;;;;;;5027136;28;20110;-85
2021/07/01 03:55:56;;;;;;;23.05;11.95;;;14.40;99.90;;;;;;5032396;28;20498;-85
2021/07/01 03:58:24;;;;;;;22.70;11.30;;;14.30;99.90;;;;;;5025332;28;20115;-83
2021/07/01 04:00:51;;;;;;;25.63;12.60;;;14.20;99.90;;;;;;5047343;28;20103;-83
2021/07/01 04:03:18;;;;;;;26.52;12.65;;;14.30;99.90;;;;;;5032761;28;20041;-85
2021/07/01 04:05:45;;;;;;;22.48;12.13;;;14.30;99.90;;;;;;5030245;28;20498;-86
2021/07/01 04:08:12;;;;;;;23.23;12.40;;;14.30;99.90;;;;;;5029062;28;20050;-85
2021/07/01 04:10:39;;;;;;;21.08;11.88;;;14.30;99.90;;;;;;5031166;28;20041;-84
2021/07/01 04:13:06;;;;;;;24.98;13.27;;;14.40;99.90;;;;;;5046655;28;20048;-85
2021/07/01 04:15:34;;;;;;;22.65;11.43;;;14.40;99.90;;;;;;5026428;28;20051;-84
2021/07/01 04:18:08;;;;;;;26.70;12.35;;;14.30;99.90;;;;;;5034978;28;20049;-85
2021/07/01 04:20:35;;;;;;;23.85;12.10;;;14.30;99.90;;;;;;5028401;28;20075;-84
2021/07/01 04:23:02;;;;;;;24.55;12.75;;;14.70;99.90;;;;;;5024672;28;20095;-85
2021/07/01 04:25:29;;;;;;;24.88;12.23;;;14.40;99.90;;;;;;5031937;28;20096;-84
2021/07/01 04:27:55;;;;;;;20.92;11.68;;;14.40;99.90;;;;;;5040760;28;20049;-85
2021/07/01 04:30:22;;;;;;;24.90;12.02;;;14.30;99.90;;;;;;5043508;28;20237;-85
2021/07/01 04:32:50;;;;;;;24.45;11.70;;;14.40;99.90;;;;;;5030330;28;20053;-84
2021/07/01 04:35:17;;;;;;;22.55;11.05;;;14.40;99.90;;;;;;5040878;28;20049;-85
2021/07/01 04:37:44;;;;;;;23.70;10.95;;;14.40;99.90;;;;;;5029100;28;20068;-85
2021/07/01 04:40:12;;;;;;;23.38;11.25;;;14.40;99.90;;;;;;5045864;28;20061;-84
2021/07/01 04:42:39;;;;;;;21.67;11.93;;;14.50;99.90;;;;;;5034139;28;20037;-85
2021/07/01 04:45:08;;;;;;;18.70;10.52;;;14.60;99.90;;;;;;5024726;28;20494;-85
2021/07/01 04:47:35;;;;;;;27.95;11.70;;;14.60;99.90;;;;;;5046580;28;20045;-85
2021/07/01 04:50:06;;;;;;;19.95;10.77;;;14.60;99.90;;;;;;5028942;28;20106;-85
2021/07/01 04:52:33;;;;;;;23.48;11.93;;;14.60;99.90;;;;;;5030897;28;20484;-86
2021/07/01 04:55:00;;;;;;;23.38;10.82;;;14.60;99.90;;;;;;5028329;28;20049;-84
2021/07/01 04:57:27;;;;;;;18.48;10.40;;;14.60;99.90;;;;;;5031502;28;20095;-84
2021/07/01 04:59:54;;;;;;;19.52;11.45;;;14.60;99.90;;;;;;5044331;28;20092;-85
2021/07/01 05:02:21;;;;;;;19.90;9.88;;;14.60;99.90;;;;;;5030608;28;20037;-84
2021/07/01 05:04:48;;;;;;;17.13;9.35;;;14.60;99.90;;;;;;5041737;28;20514;-85
2021/07/01 05:07:16;;;;;;;19.48;9.77;;;14.60;99.90;;;;;;5032343;28;20553;-85
2021/07/01 05:09:43;;;;;;;17.58;9.77;;;14.60;99.90;;;;;;5033795;28;20111;-85
2021/07/01 05:12:10;;;;;;;21.58;10.00;;;14.50;99.90;;;;;;5048891;28;20049;-85
2021/07/01 05:14:37;;;;;;;17.20;9.65;;;14.50;99.90;;;;;;5040640;28;20048;-85
2021/07/01 05:17:04;;;;;;;21.95;9.77;;;14.50;99.90;;;;;;5030555;28;20068;-85
2021/07/01 05:19:30;;;;;;;16.45;9.32;;;14.40;99.90;;;;;;5051901;28;20080;-85
2021/07/01 05:21:57;;;;;;;19.02;9.95;;;14.70;99.90;;;;;;5032137;28;20095;-86
2021/07/01 05:24:25;;;;;;;19.20;9.75;;;14.40;99.90;;;;;;5035818;28;20053;-85
2021/07/01 05:26:53;;;;;;;18.10;8.45;;;14.40;99.90;;;;;;5027821;28;20250;-85
2021/07/01 05:29:19;;;;;;;18.48;8.50;;;14.60;99.90;;;;;;5047528;28;20087;-84
2021/07/01 05:32:07;;;;;;;13.15;7.63;;;14.60;99.90;;;;;;5039984;28;20057;-86
2021/07/01 05:34:33;;;;;;;15.52;7.72;;;14.50;99.90;;;;;;5027686;28;20048;-85
2021/07/01 05:37:00;;;;;;;19.45;8.45;;;14.50;99.90;;;;;;5037083;28;20048;-85
2021/07/01 05:39:28;;;;;;;13.50;7.18;;;14.60;99.90;;;;;;5037497;28;20041;-84
2021/07/01 05:41:56;;;;;;;11.75;7.15;;;14.60;99.90;;;;;;5032864;28;20477;-85
2021/07/01 05:44:23;;;;;;;12.85;7.32;;;14.60;99.90;;;;;;5051537;28;20106;-85
2021/07/01 05:46:49;;;;;;;12.35;7.18;;;14.70;99.90;;;;;;5030865;28;20037;-84
2021/07/01 05:49:16;;;;;;;13.27;6.05;;;14.70;99.90;;;;;;5047122;28;20048;-85
2021/07/01 05:51:45;;;;;;;15.57;7.28;;;14.70;99.90;;;;;;5036642;28;20049;-85
2021/07/01 05:54:19;;;;;;;16.65;6.97;;;14.70;99.90;;;;;;5056450;28;20083;-85
2021/07/01 05:56:47;;;;;;;12.07;6.53;;;13.90;99.90;;;;;;5049159;28;20449;-85
2021/07/01 05:59:14;;;;;;;11.55;6.82;;;14.60;99.90;;;;;;5037720;28;20049;-84
2021/07/01 06:01:41;;;;;;;13.63;6.68;;;14.60;99.90;;;;;;5028262;28;20403;-84
2021/07/01 06:04:08;;;;;;;12.10;6.43;;;14.50;99.90;;;;;;5047437;28;20411;-85
2021/07/01 06:06:38;;;;;;;11.30;6.38;;;14.50;99.90;;;;;;5030444;28;20111;-84
2021/07/01 06:09:06;;;;;;;12.95;6.00;;;14.50;99.90;;;;;;5055304;28;20041;-85
2021/07/01 06:11:33;;;;;;;10.15;5.80;;;14.60;99.90;;;;;;5030188;28;20568;-85
2021/07/01 06:14:05;;;;;;;11.85;6.15;;;14.50;99.90;;;;;;5029658;28;20049;-85
2021/07/01 06:16:33;;;;;;;12.85;6.22;;;14.60;99.90;;;;;;5036065;28;20506;-84
2021/07/01 06:19:02;;;;;;;11.27;5.82;;;14.70;99.90;;;;;;5051228;28;20037;-85
2021/07/01 06:21:29;;;;;;;11.23;5.63;;;14.50;99.90;;;;;;5027344;28;20052;-85
2021/07/01 06:23:56;;;;;;;10.23;5.82;;;14.60;99.90;;;;;;5032671;28;20041;-84
2021/07/01 06:26:26;;;;;;;10.63;5.82;;;14.70;99.90;;;;;;5035691;28;20048;-85
2021/07/01 06:28:53;;;;;;;11.82;5.65;;;14.80;99.90;;;;;;5054895;28;20025;-84
2021/07/01 06:31:22;;;;;;;12.13;6.05;;;14.80;99.90;;;;;;5049042;28;20091;-85
2021/07/01 06:33:49;;;;;;;9.43;5.27;;;14.80;99.90;;;;;;5033132;28;20072;-85
2021/07/01 06:36:19;;;;;;;9.38;5.47;;;14.80;99.90;;;;;;5032518;28;20362;-84
2021/07/01 06:38:49;;;;;;;11.60;5.75;;;14.70;99.90;;;;;;5034086;28;20568;-85
2021/07/01 06:41:17;;;;;;;8.95;5.72;;;14.70;99.90;;;;;;5029729;28;20564;-84
2021/07/01 06:43:48;;;;;;;9.48;6.00;;;14.80;99.90;;;;;;5032189;28;20045;-84
2021/07/01 06:46:16;;;;;;;13.85;6.00;;;14.80;99.90;;;;;;5047926;28;20045;-85
2021/07/01 06:48:46;;;;;;;12.10;5.25;;;14.90;99.90;;;;;;5034364;28;20060;-85
2021/07/01 06:51:13;;;;;;;;;;;14.90;99.90;;;;;;5023098;28;20037;-85
2021/07/01 06:53:42;;;;;;;9.45;5.20;;;14.90;99.90;;;;;;5034419;28;19993;-84
2021/07/01 06:56:10;;;;;;;12.63;5.05;;;14.90;99.90;;;;;;5030322;28;20099;-84
2021/07/01 06:58:39;;;;;;;8.85;5.22;;;15.00;99.90;;;;;;5031936;28;20041;-84
2021/07/01 07:01:06;;;;;;;8.03;5.20;;;15.20;99.90;;;;;;5030998;28;20049;-84
2021/07/01 07:03:34;;;;;;;10.10;5.53;;;15.20;99.90;;;;;;5040687;28;20299;-84
2021/07/01 07:06:03;;;;;;;10.75;5.10;;;15.30;99.90;;;;;;5049659;28;20115;-84
2021/07/01 07:08:30;;;;;;;9.38;4.80;;;15.30;99.90;;;;;;5033977;28;20056;-84
2021/07/01 07:10:58;;;;;;;11.32;5.60;;;15.20;99.90;;;;;;5032838;28;20037;-85
2021/07/01 07:13:25;;;;;;;10.48;5.45;;;15.20;99.90;;;;;;5052706;28;20078;-84
2021/07/01 07:15:54;;;;;;;9.30;4.88;;;15.10;99.90;;;;;;5042241;28;20071;-84
2021/07/01 07:18:23;;;;;;;9.68;4.80;;;15.10;99.90;;;;;;5023660;28;20052;-84
2021/07/01 07:20:53;;;;;;;10.00;4.97;;;15.00;99.90;;;;;;5034266;28;20037;-84
2021/07/01 07:23:28;;;;;;;8.82;5.03;;;15.10;99.90;;;;;;5032360;28;20045;-84
2021/07/01 07:25:55;;;;;;;10.32;4.75;;;15.10;99.90;;;;;;5032992;28;20057;-84
2021/07/01 07:28:32;;;;;;;7.75;4.80;;;14.90;99.90;;;;;;5031140;28;20462;-84
2021/07/01 07:30:59;;;;;;;10.02;4.78;;;14.90;99.90;;;;;;5023465;28;20052;-84
2021/07/01 07:33:28;;;;;;;8.27;4.00;;;14.90;99.90;;;;;;5028456;28;20099;-84
2021/07/01 07:35:55;;;;;;;6.70;4.10;;;15.00;99.90;;;;;;5033576;28;20142;-84
2021/07/01 07:38:25;;;;;;;10.32;4.45;;;15.10;99.90;;;;;;5036976;28;20101;-84
2021/07/01 07:40:53;;;;;;;8.82;4.43;;;15.20;99.90;;;;;;5032486;28;20122;-84
2021/07/01 07:43:21;;;;;;;9.93;4.30;;;15.20;99.90;;;;;;5048272;28;20094;-84
2021/07/01 07:45:49;;;;;;;8.80;4.25;;;15.20;99.90;;;;;;5033581;28;20045;-84
2021/07/01 07:48:16;;;;;;;8.75;4.20;;;15.20;99.90;;;;;;5029571;28;20111;-84
2021/07/01 07:50:48;;;;;;;7.13;4.03;;;15.20;99.90;;;;;;5022459;28;20487;-84
2021/07/01 07:53:21;;;;;;;11.27;4.30;;;15.10;99.90;;;;;;5029925;28;20094;-84
2021/07/01 07:56:00;;;;;;;8.57;4.20;;;15.20;99.90;;;;;;5031757;28;20049;-86
2021/07/01 07:58:30;;;;;;;8.02;3.92;;;15.20;99.90;;;;;;5054387;28;20041;-85
2021/07/01 08:01:00;;;;;;;8.20;4.10;;;15.20;99.90;;;;;;5025560;28;20095;-85
2021/07/01 08:03:32;;;;;;;7.93;4.07;;;15.20;99.90;;;;;;5030462;28;20055;-85
2021/07/01 08:06:00;;;;;;;8.85;4.22;;;15.30;99.90;;;;;;5047256;28;20049;-85
2021/07/01 08:08:30;;;;;;;6.35;3.85;;;15.30;99.90;;;;;;5038930;28;20045;-85
2021/07/01 08:10:59;;;;;;;5.68;3.83;;;15.40;99.90;;;;;;5048497;28;20048;-85
2021/07/01 08:13:27;;;;;;;6.97;3.70;;;15.40;99.90;;;;;;5024186;28;20546;-86
2021/07/01 08:15:54;;;;;;;6.82;4.07;;;15.40;99.90;;;;;;5025615;28;20052;-85
2021/07/01 08:18:28;;;;;;;6.60;3.50;;;15.50;99.90;;;;;;5030933;28;20502;-85
2021/07/01 08:20:56;;;;;;;8.73;3.78;;;15.50;99.90;;;;;;5032194;28;20044;-85
2021/07/01 08:23:23;;;;;;;5.57;3.47;;;15.50;99.90;;;;;;5031124;28;20535;-85
2021/07/01 08:25:52;;;;;;;5.85;3.63;;;15.50;99.90;;;;;;5033210;28;20057;-85
2021/07/01 08:28:22;;;;;;;6.82;3.42;;;15.60;99.90;;;;;;5031516;28;20037;-85
2021/07/01 08:30:49;;;;;;;5.55;3.03;;;15.50;99.90;;;;;;5037000;28;20083;-85
2021/07/01 08:33:20;;;;;;;6.93;3.35;;;15.50;99.90;;;;;;5034312;28;20045;-85
2021/07/01 08:35:51;;;;;;;8.70;3.20;;;16.50;99.90;;;;;;5026031;28;20107;-86
2021/07/01 08:38:18;;;;;;;5.22;3.50;;;15.40;99.90;;;;;;5054398;28;20086;-85
2021/07/01 08:40:46;;;;;;;7.57;3.72;;;15.50;99.90;;;;;;5054171;28;20037;-85
2021/07/01 08:43:18;;;;;;;7.63;3.72;;;15.50;99.90;;;;;;5037207;28;20049;-85
2021/07/01 08:46:01;;;;;;;6.30;3.38;;;15.50;99.90;;;;;;5036019;28;20491;-85
2021/07/01 08:48:41;;;;;;;7.15;4.28;;;15.50;99.90;;;;;;5035310;28;20686;-86
2021/07/01 08:51:09;;;;;;;5.28;3.40;;;15.50;99.90;;;;;;5041732;28;20563;-84
2021/07/01 08:54:05;;;;;;;6.43;3.80;;;15.50;99.90;;;;;;5033881;28;20061;-85
2021/07/01 08:56:35;;;;;;;6.15;3.55;;;15.70;99.90;;;;;;5030290;28;20098;-83
2021/07/01 08:59:05;;;;;;;7.72;3.72;;;15.70;99.90;;;;;;5041379;28;20068;-85
2021/07/01 09:01:36;;;;;;;5.13;3.58;;;15.80;99.90;;;;;;5031325;28;20498;-84
2021/07/01 09:04:04;;;;;;;7.38;3.58;;;15.70;99.90;;;;;;5026270;28;20041;-85
2021/07/01 09:06:36;;;;;;;6.18;3.50;;;15.70;99.90;;;;;;5048958;28;20506;-85
2021/07/01 09:09:05;;;;;;;5.60;3.40;;;15.80;99.90;;;;;;5045071;28;20502;-86
2021/07/01 09:11:36;;;;;;;5.47;3.47;;;15.80;99.90;;;;;;5046895;28;20098;-85
2021/07/01 09:14:05;;;;;;;7.38;3.20;;;15.90;99.90;;;;;;5049816;28;20040;-85
2021/07/01 09:16:38;;;;;;;3.92;2.70;;;16.10;99.90;;;;;;5032235;28;20049;-83
2021/07/01 09:19:05;;;;;;;5.72;3.22;;;16.10;99.90;;;;;;5024150;28;20044;-85
2021/07/01 09:21:33;;;;;;;4.82;2.92;;;16.00;99.90;;;;;;5052519;28;20045;-85
2021/07/01 09:24:02;;;;;;;4.93;2.53;;;15.90;99.90;;;;;;5036418;28;20041;-85
2021/07/01 09:26:30;;;;;;;5.30;2.58;;;16.00;99.90;;;;;;5031943;28;20498;-85
2021/07/01 09:28:57;;;;;;;3.90;2.45;;;16.10;99.90;;;;;;5040368;28;20049;-84
2021/07/01 09:31:26;;;;;;;4.32;2.53;;;16.00;99.90;;;;;;5030459;28;20055;-85
2021/07/01 09:33:54;;;;;;;4.85;2.75;;;16.20;99.90;;;;;;5031517;28;20045;-84
2021/07/01 09:36:24;;;;;;;3.70;2.33;;;16.20;99.90;;;;;;5031674;28;20049;-85
2021/07/01 09:38:54;;;;;;;4.38;2.35;;;16.30;99.90;;;;;;5033910;28;20036;-85
2021/07/01 09:41:23;;;;;;;4.38;2.15;;;16.50;99.90;;;;;;5037720;28;20053;-86
2021/07/01 09:43:51;;;;;;;4.10;2.03;;;16.40;99.90;;;;;;5036032;28;20037;-84
2021/07/01 09:46:27;;;;;;;3.30;1.75;;;16.50;99.90;;;;;;5030109;28;20045;-86
2021/07/01 09:48:58;;;;;;;2.85;1.73;;;16.60;99.90;;;;;;5045872;28;20041;-84
2021/07/01 09:51:27;;;;;;;3.50;2.15;;;16.50;99.90;;;;;;5033966;28;20525;-85
2021/07/01 09:53:54;;;;;;;2.72;1.70;;;16.40;99.90;;;;;;5033176;28;20098;-84
2021/07/01 09:56:27;;;;;;;3.47;1.75;;;16.40;99.90;;;;;;5053438;28;20110;-85
2021/07/01 09:59:01;;;;;;;2.83;1.70;;;16.40;99.90;;;;;;5032303;28;20041;-85
2021/07/01 10:01:41;;;;;;;2.78;1.65;;;16.50;99.90;;;;;;5033565;28;20087;-85
2021/07/01 10:04:36;;;;;;;2.20;1.38;;;16.50;99.90;;;;;;5044810;28;20056;-86
2021/07/01 10:07:25;;;;;;;2.97;1.60;;;16.50;99.90;;;;;;5029547;28;20045;-85
2021/07/01 10:10:14;;;;;;;3.10;1.73;;;16.40;99.90;;;;;;5042166;28;20041;-86
2021/07/01 10:13:03;;;;;;;3.70;1.50;;;16.60;99.90;;;;;;5050265;28;20090;-85
2021/07/01 10:15:51;;;;;;;2.83;1.58;;;16.70;99.90;;;;;;5039572;28;20123;-85
2021/07/01 10:18:41;;;;;;;3.13;1.52;;;16.60;99.90;;;;;;5041040;28;20037;-85
2021/07/01 10:21:31;;;;;;;2.53;1.30;;;16.60;99.90;;;;;;5046360;28;20156;-86
2021/07/01 10:24:19;;;;;;;3.88;1.50;;;16.60;99.90;;;;;;5031469;28;20348;-85
2021/07/01 10:27:07;;;;;;;1.90;1.20;;;16.60;99.90;;;;;;5051609;28;20559;-86
2021/07/01 10:29:56;;;;;;;2.35;1.20;;;16.70;99.90;;;;;;5028483;28;20184;-86
2021/07/01 10:32:45;;;;;;;2.95;1.33;;;16.50;99.90;;;;;;5037923;28;20203;-86
2021/07/01 10:35:35;;;;;;;1.95;1.05;;;16.50;99.90;;;;;;5040752;28;20137;-85
2021/07/01 10:38:24;;;;;;;2.28;1.05;;;16.50;99.90;;;;;;5031038;28;20044;-87
2021/07/01 10:41:12;;;;;;;1.98;0.90;;;16.80;99.90;;;;;;5036419;28;20124;-86
2021/07/01 10:44:01;;;;;;;1.42;0.88;;;16.60;99.90;;;;;;5036036;28;20110;-86
2021/07/01 10:46:48;;;;;;;1.70;0.98;;;16.60;99.90;;;;;;5037379;28;20060;-86
2021/07/01 10:49:36;;;;;;;2.08;0.98;;;16.60;99.90;;;;;;5038561;28;20037;-85
2021/07/01 10:52:44;;;;;;;1.70;0.95;;;18.30;99.90;;;;;;5040950;28;20128;-86
2021/07/01 10:55:41;;;;;;;1.83;0.70;;;16.60;99.90;;;;;;5029754;28;20049;-86
2021/07/01 10:58:37;;;;;;;1.38;0.63;;;16.80;99.90;;;;;;5035330;28;20079;-85
2021/07/01 11:01:41;;;;;;;2.90;0.82;;;16.90;99.90;;;;;;5037859;28;20072;-85
2021/07/01 11:04:29;;;;;;;1.83;1.00;;;16.80;99.90;;;;;;5036722;28;20052;-86
2021/07/01 11:07:18;;;;;;;1.73;0.80;;;16.70;99.90;;;;;;5029043;28;20486;-86
2021/07/01 11:10:06;;;;;;;1.40;0.70;;;16.60;99.90;;;;;;5036618;28;20048;-85
2021/07/01 11:12:54;;;;;;;1.58;0.90;;;16.70;99.90;;;;;;5038846;28;20135;-86
2021/07/01 11:16:06;;;;;;;1.02;0.60;;;16.70;99.90;;;;;;5037514;28;20116;-85
2021/07/01 11:18:53;;;;;;;1.88;0.70;;;16.70;99.90;;;;;;5052997;28;20048;-84
2021/07/01 11:21:45;;;;;;;0.98;0.60;;;16.80;99.90;;;;;;5039299;28;20502;-84
2021/07/01 11:24:32;;;;;;;1.00;0.55;;;16.80;99.90;;;;;;5036827;28;20044;-84
2021/07/01 11:27:23;;;;;;;1.35;0.60;;;16.90;99.90;;;;;;5041032;28;20040;-86
2021/07/01 11:30:21;;;;;;;0.98;0.50;;;17.00;99.90;;;;;;5052494;28;20041;-84
2021/07/01 11:33:13;;;;;;;1.92;0.50;;;17.00;99.90;;;;;;5048560;28;20141;-85
2021/07/01 11:36:10;;;;;;;1.02;0.50;;;16.90;99.90;;;;;;5045874;28;20041;-85
2021/07/01 11:39:07;;;;;;;1.02;0.60;;;16.80;99.90;;;;;;5039882;28;20175;-84
2021/07/01 11:41:56;;;;;;;0.65;0.50;;;16.80;99.90;;;;;;5041657;28;20055;-85
2021/07/01 11:44:44;;;;;;;0.55;0.43;;;16.70;99.90;;;;;;5031956;28;20088;-84
2021/07/01 11:47:34;;;;;;;1.15;0.70;;;16.70;99.90;;;;;;5035467;28;20052;-87
2021/07/01 11:50:23;;;;;;;1.17;0.50;;;16.80;99.90;;;;;;5034145;28;20060;-84
2021/07/01 11:53:10;;;;;;;1.50;0.68;;;16.90;99.90;;;;;;5034141;28;20136;-85
2021/07/01 11:55:59;;;;;;;0.80;0.50;;;16.90;99.90;;;;;;5033206;28;20491;-85
2021/07/01 11:58:46;;;;;;;0.80;0.50;;;17.00;99.90;;;;;;5032418;28;20051;-86
2021/07/01 12:01:34;;;;;;;0.80;0.57;;;17.00;99.90;;;;;;5025135;28;20499;-85
2021/07/01 12:04:28;;;;;;;0.63;0.50;;;17.00;99.90;;;;;;5030423;28;20044;-85
2021/07/01 12:07:22;;;;;;;0.80;0.50;;;17.00;99.90;;;;;;5030697;28;20125;-86
2021/07/01 12:10:16;;;;;;;0.90;0.52;;;17.20;99.90;;;;;;5034123;28;20164;-86
2021/07/01 12:13:29;;;;;;;0.77;0.40;;;17.20;99.90;;;;;;5030986;28;20049;-85
2021/07/01 12:16:17;;;;;;;1.38;0.38;;;16.90;99.90;;;;;;5027498;28;20041;-85
2021/07/01 12:19:04;;;;;;;1.58;0.70;;;17.20;99.90;;;;;;5046154;28;20040;-86
2021/07/01 12:21:53;;;;;;;1.20;0.60;;;17.30;99.90;;;;;;5031710;28;20052;-85
2021/07/01 12:24:41;;;;;;;1.77;0.80;;;17.50;99.90;;;;;;5049370;28;20052;-86
2021/07/01 12:27:29;;;;;;;1.33;0.63;;;17.50;99.90;;;;;;5032187;28;20136;-86
2021/07/01 12:30:16;;;;;;;0.52;0.52;;;17.50;99.90;;;;;;5033937;28;20346;-86
2021/07/01 12:33:32;;;;;;;0.57;0.43;;;17.70;99.90;;;;;;5035502;28;20132;-86
2021/07/01 12:36:25;;;;;;;1.08;0.50;;;17.60;99.90;;;;;;5034887;28;20179;-87
2021/07/01 12:39:21;;;;;;;0.70;0.40;;;17.60;99.90;;;;;;5046263;28;20049;-86
2021/07/01 12:42:22;;;;;;;0.85;0.50;;;17.70;99.90;;;;;;5042375;28;20187;-86
2021/07/01 12:45:09;;;;;;;1.10;0.52;;;17.60;99.90;;;;;;5032483;28;20425;-85
2021/07/01 12:47:56;;;;;;;2.55;0.50;;;17.50;99.90;;;;;;5036461;28;20087;-84
2021/07/01 12:50:44;;;;;;;1.63;0.60;;;17.30;99.90;;;;;;5031674;28;20067;-85
2021/07/01 12:53:31;;;;;;;1.10;0.50;;;17.50;99.90;;;;;;5031351;28;20136;-86
2021/07/01 12:56:38;;;;;;;0.90;0.60;;;17.00;99.90;;;;;;5036726;28;20482;-86
2021/07/01 12:59:27;;;;;;;0.93;0.50;;;17.10;99.90;;;;;;5030982;28;20045;-86
2021/07/01 13:02:18;;;;;;;0.88;0.40;;;16.70;99.90;;;;;;5030293;28;20068;-87
2021/07/01 13:05:09;;;;;;;0.85;0.30;;;17.00;99.90;;;;;;5026067;28;20041;-86
2021/07/01 13:07:56;;;;;;;0.73;0.40;;;17.00;99.90;;;;;;5033996;28;20041;-87
2021/07/01 13:10:43;;;;;;;0.80;0.30;;;17.00;99.90;;;;;;5047684;28;20045;-86
2021/07/01 13:13:31;;;;;;;1.10;0.52;;;16.90;99.90;;;;;;5046509;28;20049;-86